In Rescue
 
Open Full Screen Window  High Contrast Mode
Wind Gusting 00 knots
10
June 22, 2024 9:26 PM CDT
Weather Information
Wind Direction
  320 °
Wind Speed
  10 kt (12 mph)
Wind Gust
  00 kt (0 mph)
Altimeter
29.79 in
Visibility
10 SM
Temperature
21° C
70° F
Dewpoint
20° C
68° F
Humidity
94%
Sky Condition
Overcast @ 7,000 ft
Broken @ 3,600 ft
Scattered @ 900 ft
VFR

METAR KAUM 230226Z AUTO 32010KT 10SM SCT009 BKN036 OVC070 21/20 A2979 RMK AO2

FAA Disclaimer: The data displayed is for advisory purposes only and is not to be used for flight planning or operations.